Time;durP1;ratioP1;P1;durP2;ratioP2;P2;SDS_P1;SDS_P2;PMS_P1;PMS_P2;Temp;Humidity;BMP_temperature;BMP_pressure;BME280_temperature;BME280_humidity;BME280_pressure;Samples;Min_cycle;Max_cycle;Signal;HPM_P1;HPM_P2
2022/11/10 00:01:49;;;;;;;3.72;0.77;;;;;;;10.41;90.88;101751.00;5034646;28;96571;-30
2022/11/10 00:04:15;;;;;;;2.75;1.05;;;;;;;10.44;90.60;101750.03;5037376;27;96879;-31
2022/11/10 00:06:40;;;;;;;3.85;0.55;;;;;;;10.43;91.12;101761.78;5036967;27;97249;-31
2022/11/10 00:09:05;;;;;;;2.15;0.45;;;;;;;10.40;91.21;101770.94;5036721;27;99109;-30
2022/11/10 00:11:31;;;;;;;1.73;0.57;;;;;;;10.40;91.70;101772.78;5036949;28;96632;-31
2022/11/10 00:19:25;;;;;;;3.00;0.95;;;;;;;10.42;91.16;101768.16;5036658;28;97094;-30
2022/11/10 00:21:51;;;;;;;3.92;0.77;;;;;;;10.40;91.18;101770.06;5035387;28;96540;-31
2022/11/10 00:24:16;;;;;;;4.72;0.88;;;;;;;10.41;91.32;101786.22;5037066;27;96737;-32
2022/11/10 00:26:42;;;;;;;4.50;0.80;;;;;;;10.37;91.37;101773.78;5035785;27;99749;-30
2022/11/10 00:29:07;;;;;;;3.08;0.80;;;;;;;10.40;91.07;101775.47;5036618;27;97857;-31
2022/11/10 00:31:32;;;;;;;1.67;0.52;;;;;;;10.41;91.16;101783.50;5036794;27;96483;-31
2022/11/10 00:33:58;;;;;;;5.05;0.82;;;;;;;10.38;91.00;101777.38;5036642;27;96877;-31
2022/11/10 00:36:24;;;;;;;1.63;0.88;;;;;;;10.37;91.05;101776.50;5036435;27;98063;-32
2022/11/10 00:38:50;;;;;;;4.45;1.08;;;;;;;10.35;91.38;101780.22;5036318;27;97323;-30
2022/11/10 00:41:15;;;;;;;3.75;0.88;;;;;;;10.36;91.44;101776.56;5035295;28;96644;-30
2022/11/10 00:43:41;;;;;;;6.03;1.05;;;;;;;10.33;91.74;101784.84;5037160;27;96767;-31
2022/11/10 00:46:06;;;;;;;1.88;0.93;;;;;;;10.35;91.79;101780.22;5036254;27;97849;-31
2022/11/10 00:48:31;;;;;;;2.75;0.98;;;;;;;10.32;92.04;101783.06;5036378;27;97712;-31
2022/11/10 00:50:57;;;;;;;4.40;1.10;;;;;;;10.28;92.21;101786.84;5036107;27;96614;-30
2022/11/10 00:53:22;;;;;;;2.80;0.82;;;;;;;10.26;91.98;101788.75;5036381;27;96855;-32
2022/11/10 00:55:48;;;;;;;2.10;0.80;;;;;;;10.27;91.95;101795.91;5036191;27;98088;-30
2022/11/10 00:58:13;;;;;;;3.45;0.88;;;;;;;10.28;92.33;101794.97;5035893;27;99178;-31
2022/11/10 01:00:39;;;;;;;3.65;0.63;;;;;;;10.26;92.25;101789.59;5036226;27;96744;-31
2022/11/10 01:03:05;;;;;;;0.98;0.47;;;;;;;10.28;92.27;101794.97;5034922;28;96958;-33
2022/11/10 01:05:34;;;;;;;4.70;0.93;;;;;;;10.25;92.42;101793.28;5036017;27;98126;-31
2022/11/10 01:07:59;;;;;;;3.90;1.00;;;;;;;10.25;91.97;101790.56;5034863;28;101037;-31
2022/11/10 01:10:25;;;;;;;1.67;0.73;;;;;;;10.25;92.52;101797.78;5036296;27;96484;-31
2022/11/10 01:12:51;;;;;;;3.88;0.70;;;;;;;10.27;92.67;101799.47;5035923;27;96837;-31
2022/11/10 01:15:16;;;;;;;3.78;0.70;;;;;;;10.24;92.67;101794.22;5035125;27;97416;-32
2022/11/10 01:17:41;;;;;;;3.10;0.82;;;;;;;10.23;93.29;101792.47;5035816;27;97770;-30
2022/11/10 01:20:07;;;;;;;2.25;0.63;;;;;;;10.22;92.94;101793.41;5035207;28;99718;-32
2022/11/10 01:22:34;;;;;;;1.27;0.57;;;;;;;10.24;92.73;101798.75;5034456;28;96873;-31
2022/11/10 01:24:59;;;;;;;6.18;1.25;;;;;;;10.24;92.74;101806.88;5034147;28;100834;-31
2022/11/10 01:27:24;;;;;;;5.15;0.77;;;;;;;10.20;92.95;101807.03;5035687;27;97765;-31
2022/11/10 01:29:50;;;;;;;2.47;0.70;;;;;;;10.23;93.29;101807.84;5036033;27;96561;-31
2022/11/10 01:32:15;;;;;;;3.83;0.68;;;;;;;10.23;93.24;101815.97;5036232;28;98531;-32
2022/11/10 01:34:40;;;;;;;4.97;0.93;;;;;;;10.21;92.91;101811.47;5035370;27;99330;-31
2022/11/10 01:37:06;;;;;;;1.58;0.57;;;;;;;10.20;92.88;101807.03;5035175;28;102872;-31
2022/11/10 01:39:31;;;;;;;5.43;0.80;;;;;;;10.20;93.10;101806.13;5035076;27;96664;-32
2022/11/10 01:41:57;;;;;;;0.20;0.20;;;;;;;10.17;92.90;101817.97;5035485;27;96965;-30
2022/11/10 01:44:24;;;;;;;2.25;0.88;;;;;;;10.17;92.79;101811.69;5035708;27;97379;-31
2022/11/10 01:46:50;;;;;;;1.42;0.77;;;;;;;10.17;92.60;101806.25;5033810;28;101180;-31
2022/11/10 01:49:18;;;;;;;1.10;0.73;;;;;;;10.16;93.19;101810.81;5035564;27;96606;-30
2022/11/10 01:51:50;;;;;;;3.13;0.60;;;;;;;10.17;93.28;101817.97;5034093;28;96791;-32
2022/11/10 01:54:22;;;;;;;6.18;1.02;;;;;;;10.15;93.55;101811.78;5033876;28;100792;-31
2022/11/10 01:56:52;;;;;;;3.90;0.68;;;;;;;10.13;93.38;101815.47;5034121;28;100742;-31
2022/11/10 01:59:23;;;;;;;1.90;0.63;;;;;;;10.11;93.25;101823.66;5034027;28;96659;-31
2022/11/10 02:01:51;;;;;;;1.43;0.50;;;;;;;10.12;93.51;101835.38;5033821;28;96837;-31
2022/11/10 02:04:19;;;;;;;1.45;1.05;;;;;;;10.14;93.38;101831.66;5032983;28;100912;-32
2022/11/10 02:06:47;;;;;;;10.85;1.35;;;;;;;10.14;92.87;101842.47;5033620;28;101021;-31
2022/11/10 02:09:12;;;;;;;6.22;0.82;;;;;;;10.18;92.91;101851.38;5035358;27;96470;-32
2022/11/10 02:11:39;;;;;;;2.55;0.73;;;;;;;10.18;92.67;101844.13;5035373;27;96788;-30
2022/11/10 02:14:05;;;;;;;2.33;0.90;;;;;;;10.16;92.59;101855.97;5034936;27;97472;-31
2022/11/10 02:16:31;;;;;;;4.10;0.57;;;;;;;10.15;92.36;101855.09;5032967;28;101325;-32
2022/11/10 02:18:56;;;;;;;4.07;0.85;;;;;;;10.12;92.99;101860.63;5035563;28;96457;-32
2022/11/10 02:21:22;;;;;;;2.33;0.73;;;;;;;10.09;92.77;101858.03;5035353;27;96833;-30
2022/11/10 02:23:50;;;;;;;8.75;1.13;;;;;;;10.10;93.05;101867.91;5034150;28;97909;-31
2022/11/10 02:26:22;;;;;;;1.55;0.60;;;;;;;10.10;93.21;101862.50;5033408;28;99085;-31
2022/11/10 02:28:48;;;;;;;2.42;0.82;;;;;;;10.10;93.32;101867.91;5033174;28;96620;-31
2022/11/10 02:31:13;;;;;;;1.75;0.75;;;;;;;10.13;92.77;101875.03;5034594;28;96768;-32
2022/11/10 02:33:39;;;;;;;3.15;0.90;;;;;;;10.10;92.55;101873.31;5034635;27;97314;-32
2022/11/10 02:36:04;;;;;;;2.10;0.50;;;;;;;10.06;92.55;101871.72;5034390;27;99717;-32
2022/11/10 02:38:30;;;;;;;2.55;0.95;;;;;;;10.04;92.82;101876.31;5034852;28;96569;-32
2022/11/10 02:40:55;;;;;;;2.45;0.75;;;;;;;10.07;92.80;101886.13;5035015;27;96798;-31
2022/11/10 02:43:21;;;;;;;3.17;0.65;;;;;;;10.00;92.92;101880.97;5034514;27;97925;-32
2022/11/10 02:45:46;;;;;;;2.38;0.90;;;;;;;10.05;92.55;101905.13;5034698;27;97542;-31
2022/11/10 02:48:13;;;;;;;1.73;0.38;;;;;;;10.03;92.46;101896.19;5034695;27;96474;-32
2022/11/10 02:50:39;;;;;;;1.95;0.88;;;;;;;9.99;92.65;101902.69;5033172;28;96851;-31
2022/11/10 02:53:05;;;;;;;4.47;0.55;;;;;;;10.03;92.67;101915.13;5032433;28;100965;-31
2022/11/10 02:55:30;;;;;;;4.88;0.75;;;;;;;10.02;92.47;101907.97;5034508;27;97478;-30
2022/11/10 02:57:56;;;;;;;2.83;0.40;;;;;;;9.95;92.36;101895.66;5034512;27;96622;-30
2022/11/10 03:00:21;;;;;;;1.42;0.43;;;;;;;9.97;92.79;101910.00;5034699;27;96831;-32
2022/11/10 03:02:47;;;;;;;1.30;0.60;;;;;;;9.95;92.83;101912.75;5034071;27;97418;-32
2022/11/10 03:05:12;;;;;;;3.17;0.65;;;;;;;9.93;93.17;101913.78;5034351;27;98025;-31
2022/11/10 03:07:38;;;;;;;5.60;0.90;;;;;;;9.93;93.18;101919.19;5034693;27;96536;-30
2022/11/10 03:10:04;;;;;;;5.47;0.22;;;;;;;9.93;93.29;101921.91;5034950;28;96779;-30
2022/11/10 03:12:29;;;;;;;3.38;0.55;;;;;;;9.91;93.49;101929.19;5032663;28;101919;-31
2022/11/10 03:14:55;;;;;;;5.80;1.00;;;;;;;9.94;93.06;101927.25;5034105;27;97962;-31
2022/11/10 03:17:20;;;;;;;5.15;0.75;;;;;;;9.92;93.65;101936.38;5033401;28;98973;-31
2022/11/10 03:19:45;;;;;;;0.95;0.45;;;;;;;9.91;93.63;101935.47;5033440;27;96819;-30
2022/11/10 03:22:11;;;;;;;1.30;0.38;;;;;;;9.91;93.45;101935.47;5034171;28;97340;-30
2022/11/10 03:24:36;;;;;;;2.33;0.70;;;;;;;9.87;93.59;101924.88;5034022;27;97766;-31
2022/11/10 03:27:01;;;;;;;5.10;0.80;;;;;;;9.87;92.99;101941.13;5034490;27;96477;-31
2022/11/10 03:29:27;;;;;;;2.05;0.52;;;;;;;9.84;93.69;101939.38;5032837;28;96913;-32
2022/11/10 03:31:52;;;;;;;1.45;0.52;;;;;;;9.85;93.69;101941.16;5034032;27;97869;-32
2022/11/10 03:34:17;;;;;;;0.65;0.35;;;;;;;9.87;93.71;101946.53;5034488;27;99724;-31
2022/11/10 03:36:43;;;;;;;4.05;0.73;;;;;;;9.80;94.85;101935.06;5037827;27;96605;-31
2022/11/10 03:39:09;;;;;;;1.48;0.73;;;;;;;9.86;94.30;101947.44;5037586;27;96876;-33
2022/11/10 03:41:34;;;;;;;2.83;0.57;;;;;;;9.81;94.57;101938.63;5036919;28;98121;-30
2022/11/10 03:43:59;;;;;;;4.40;1.17;;;;;;;9.81;94.53;101949.47;5037182;27;97350;-31
2022/11/10 03:46:25;;;;;;;3.47;0.95;;;;;;;9.80;94.09;101948.59;5038003;27;96453;-30
2022/11/10 03:48:50;;;;;;;6.25;1.42;;;;;;;9.77;95.09;101957.72;5037642;27;96648;-31
2022/11/10 03:51:15;;;;;;;7.72;1.00;;;;;;;9.81;94.27;101957.59;5037123;28;102709;-31
2022/11/10 03:53:41;;;;;;;3.28;1.23;;;;;;;9.81;94.08;101960.28;5036919;28;98593;-31
2022/11/10 03:56:06;;;;;;;2.53;1.30;;;;;;;9.79;94.69;101952.22;5037473;27;96490;-31
2022/11/10 03:58:32;;;;;;;3.53;0.85;;;;;;;9.81;94.95;101958.47;5037252;28;96807;-31
2022/11/10 04:00:57;;;;;;;3.55;1.10;;;;;;;9.82;94.47;101967.44;5036919;27;97378;-32
2022/11/10 04:03:24;;;;;;;4.05;0.80;;;;;;;9.79;94.21;101963.91;5035451;28;101181;-31
2022/11/10 04:16:46;;;;;;;3.10;0.82;;;;;;;9.81;94.63;101992.75;5037029;28;96794;-31
2022/11/10 04:19:11;;;;;;;1.55;0.57;;;;;;;9.80;94.35;101991.88;5035812;28;116185;-33
2022/11/10 04:21:37;;;;;;;7.35;0.82;;;;;;;9.83;94.13;102002.56;5036476;27;104046;-31
2022/11/10 04:24:03;;;;;;;3.05;0.70;;;;;;;9.82;94.04;102008.03;5037071;28;98126;-30
2022/11/10 04:26:28;;;;;;;2.13;0.82;;;;;;;9.82;94.46;102008.03;5035383;28;96571;-30
2022/11/10 04:28:56;;;;;;;7.03;1.13;;;;;;;9.83;94.40;102001.72;5036718;27;96775;-32
2022/11/10 04:31:24;;;;;;;0.55;0.38;;;;;;;9.83;94.40;102009.81;5034516;28;101255;-30
2022/11/10 04:33:50;;;;;;;4.65;0.90;;;;;;;9.81;94.18;102009.88;5036247;27;99184;-32
2022/11/10 04:36:21;;;;;;;0.45;0.40;;;;;;;9.81;94.08;102007.16;5035147;28;96929;-31
2022/11/10 04:38:47;;;;;;;0.90;0.60;;;;;;;9.81;94.19;102009.00;5035431;28;96792;-31
2022/11/10 04:41:13;;;;;;;1.85;0.77;;;;;;;9.79;93.94;102014.47;5034873;28;100795;-30
2022/11/10 04:43:39;;;;;;;2.28;0.77;;;;;;;9.77;94.21;102019.94;5034847;28;101356;-31
2022/11/10 04:46:05;;;;;;;1.48;0.63;;;;;;;9.76;94.84;102023.59;5035923;27;96551;-30
2022/11/10 04:48:33;;;;;;;2.17;1.00;;;;;;;9.78;94.96;102029.81;5035536;28;96926;-31
2022/11/10 04:51:05;;;;;;;1.88;0.77;;;;;;;9.76;95.16;102022.72;5034654;28;101241;-31
2022/11/10 04:53:32;;;;;;;2.42;1.08;;;;;;;9.78;94.82;102020.81;5034611;27;100656;-30
2022/11/10 04:55:57;;;;;;;2.97;0.68;;;;;;;9.78;94.60;102027.13;5034387;28;96667;-32
2022/11/10 04:58:22;;;;;;;6.50;1.52;;;;;;;9.78;95.00;102024.41;5035045;28;96573;-31
2022/11/10 05:00:48;;;;;;;4.63;1.00;;;;;;;9.82;94.95;102029.69;5036070;27;97898;-32
2022/11/10 05:03:13;;;;;;;1.42;0.88;;;;;;;9.78;94.95;102032.53;5035881;27;98269;-31
2022/11/10 05:05:39;;;;;;;1.20;0.60;;;;;;;9.76;94.63;102034.41;5036147;27;96526;-31
2022/11/10 05:08:05;;;;;;;3.75;1.27;;;;;;;9.78;94.93;102043.34;5034821;28;96861;-31
2022/11/10 05:10:31;;;;;;;3.22;1.13;;;;;;;9.78;94.63;102051.47;5034526;28;100989;-31
2022/11/10 05:12:57;;;;;;;1.67;0.73;;;;;;;9.73;95.28;102041.78;5036300;28;97793;-32
2022/11/10 05:15:23;;;;;;;5.75;1.10;;;;;;;9.78;95.55;102046.06;5034353;28;96705;-31
2022/11/10 05:17:50;;;;;;;2.35;1.13;;;;;;;9.81;94.76;102046.88;5034370;28;96806;-30
2022/11/10 05:20:20;;;;;;;5.28;1.60;;;;;;;9.77;95.10;102051.50;5032986;28;104413;-31
2022/11/10 05:23:36;;;;;;;3.78;0.80;;;;;;;9.79;95.05;102052.34;5035650;27;97806;-31
2022/11/10 05:25:34;;;;;;;1.95;0.77;;;;;;;9.77;94.36;102057.84;5035554;28;96705;-32
2022/11/10 05:27:59;;;;;;;1.67;0.70;;;;;;;9.76;94.94;102052.47;5034513;28;96806;-31
2022/11/10 05:30:25;;;;;;;3.60;0.88;;;;;;;9.78;94.52;102066.81;5035324;28;98907;-30
2022/11/10 05:32:50;;;;;;;4.93;1.10;;;;;;;9.78;94.33;102062.28;5035713;27;97363;-31
2022/11/10 05:35:15;;;;;;;1.30;0.68;;;;;;;9.76;94.55;102063.28;5035207;28;104101;-31
2022/11/10 05:37:41;;;;;;;3.80;1.10;;;;;;;9.76;94.64;102058.75;5036439;27;96943;-31
2022/11/10 05:40:07;;;;;;;8.80;0.85;;;;;;;9.75;94.81;102057.00;5035606;27;97874;-31
2022/11/10 05:42:32;;;;;;;6.00;1.45;;;;;;;9.73;94.50;102063.41;5035188;27;97948;-31
2022/11/10 05:44:57;;;;;;;1.88;0.80;;;;;;;9.70;94.86;102058.09;5034595;27;96668;-31
2022/11/10 05:47:23;;;;;;;6.38;0.82;;;;;;;9.71;94.73;102068.88;5035657;28;96850;-32
2022/11/10 05:49:48;;;;;;;2.08;0.65;;;;;;;9.74;94.71;102076.88;5034296;28;97933;-31
2022/11/10 05:52:13;;;;;;;3.33;0.75;;;;;;;9.74;94.98;102060.63;5034926;27;110062;-31
2022/11/10 05:54:39;;;;;;;2.40;1.02;;;;;;;9.74;94.90;102066.03;5035363;27;96662;-31
2022/11/10 05:57:04;;;;;;;5.43;0.95;;;;;;;9.73;94.96;102061.59;5035646;27;96776;-32
2022/11/10 05:59:29;;;;;;;1.38;0.35;;;;;;;9.74;95.39;102063.34;5033968;27;97894;-31
2022/11/10 06:01:55;;;;;;;1.77;0.90;;;;;;;9.73;95.43;102075.13;5035440;27;97396;-31
2022/11/10 06:04:20;;;;;;;3.28;1.13;;;;;;;9.74;95.77;102082.28;5035651;27;96579;-31
2022/11/10 06:06:45;;;;;;;2.08;0.70;;;;;;;9.72;95.55;102086.00;5035740;27;96748;-31
2022/11/10 06:09:11;;;;;;;2.95;0.68;;;;;;;9.74;95.27;102084.97;5034578;27;97923;-30
2022/11/10 06:11:36;;;;;;;1.27;0.52;;;;;;;9.75;95.43;102097.59;5035105;27;97969;-31
2022/11/10 06:14:01;;;;;;;2.45;0.93;;;;;;;9.76;95.14;102099.34;5035232;27;96632;-31
2022/11/10 06:16:27;;;;;;;4.30;0.77;;;;;;;9.77;95.05;102111.94;5034714;27;96812;-31
2022/11/10 06:18:52;;;;;;;4.00;0.60;;;;;;;9.76;94.67;102109.28;5034906;28;100672;-31
2022/11/10 06:21:17;;;;;;;4.85;1.02;;;;;;;9.75;95.12;102118.38;5034839;27;97311;-32
2022/11/10 06:23:43;;;;;;;1.67;0.80;;;;;;;9.77;94.92;102120.06;5035228;27;96526;-33
2022/11/10 06:26:08;;;;;;;4.30;0.88;;;;;;;9.76;95.08;102112.00;5035911;27;96787;-30
2022/11/10 06:28:33;;;;;;;7.70;1.40;;;;;;;9.72;94.95;102113.91;5034643;27;97896;-31
2022/11/10 06:30:59;;;;;;;2.67;0.70;;;;;;;9.74;95.36;102112.03;5034746;27;98010;-31
2022/11/10 06:33:24;;;;;;;1.95;0.98;;;;;;;9.72;95.34;102118.44;5034519;28;96575;-31
2022/11/10 06:35:50;;;;;;;5.07;1.27;;;;;;;9.72;95.39;102132.84;5034837;27;96809;-30
2022/11/10 06:38:15;;;;;;;3.00;1.00;;;;;;;9.73;95.40;102126.53;5034310;27;99268;-30
2022/11/10 06:40:41;;;;;;;5.20;0.47;;;;;;;9.73;95.56;102129.22;5034947;28;97291;-32
2022/11/10 06:43:06;;;;;;;2.05;1.10;;;;;;;9.74;94.96;102136.41;5034931;27;97016;-30
2022/11/10 06:45:32;;;;;;;0.40;0.40;;;;;;;9.71;95.24;102138.34;5034719;27;96767;-30
2022/11/10 06:48:03;;;;;;;1.02;0.47;;;;;;;9.71;95.43;102152.75;5034623;27;97839;-31
2022/11/10 06:50:28;;;;;;;2.90;0.70;;;;;;;9.70;95.67;102152.78;5033307;28;100911;-34
2022/11/10 06:52:58;;;;;;;2.85;0.88;;;;;;;9.70;95.91;102155.50;5033321;28;96477;-32
2022/11/10 06:55:24;;;;;;;2.95;0.70;;;;;;;9.73;95.66;102160.81;5033093;28;96767;-31
2022/11/10 06:57:50;;;;;;;5.57;1.42;;;;;;;9.73;95.70;102169.81;5032281;28;101168;-31
2022/11/10 07:00:16;;;;;;;2.05;0.88;;;;;;;9.75;95.61;102177.88;5034208;28;99194;-31
2022/11/10 07:02:41;;;;;;;1.63;0.82;;;;;;;9.73;96.13;102186.06;5032949;28;96703;-32
2022/11/10 07:05:07;;;;;;;3.22;0.95;;;;;;;9.75;95.29;102186.88;5034673;27;96757;-31
2022/11/10 07:07:32;;;;;;;0.63;0.50;;;;;;;9.74;95.67;102195.91;5032870;27;100587;-31
2022/11/10 07:09:58;;;;;;;2.97;1.13;;;;;;;9.77;95.52;102201.25;5035377;27;99401;-32
2022/11/10 07:12:23;;;;;;;3.28;0.85;;;;;;;9.77;95.43;102201.25;5037419;27;101730;-31
2022/11/10 07:14:48;;;;;;;8.23;1.17;;;;;;;9.76;95.45;102199.47;5038048;28;96863;-31
2022/11/10 07:17:14;;;;;;;1.70;0.77;;;;;;;9.78;95.48;102194.00;5036848;27;99984;-30
2022/11/10 07:19:39;;;;;;;3.05;1.08;;;;;;;9.78;95.02;102194.88;5035878;27;98302;-32
2022/11/10 07:22:06;;;;;;;4.18;1.20;;;;;;;9.76;95.26;102198.59;5037325;27;96469;-31
2022/11/10 07:24:31;;;;;;;3.95;0.77;;;;;;;9.80;95.46;102189.44;5036592;28;96528;-31
2022/11/10 07:26:57;;;;;;;8.70;1.25;;;;;;;9.80;95.83;102192.13;5035824;28;100725;-30
2022/11/10 07:29:23;;;;;;;4.13;0.77;;;;;;;9.82;95.84;102189.34;5037546;27;97866;-31
2022/11/10 07:31:48;;;;;;;3.05;1.02;;;;;;;9.87;96.01;102181.97;5036299;28;96664;-31
2022/11/10 07:34:14;;;;;;;5.18;1.00;;;;;;;9.87;95.69;102185.56;5037792;27;96723;-31
2022/11/10 07:36:39;;;;;;;2.80;0.75;;;;;;;9.89;96.31;102199.00;5037363;27;97365;-32
2022/11/10 07:39:04;;;;;;;3.17;0.90;;;;;;;9.91;96.04;102207.97;5037713;27;97661;-31
2022/11/10 07:41:30;;;;;;;1.38;0.80;;;;;;;9.93;96.22;102217.78;5037371;27;96442;-30
2022/11/10 07:43:55;;;;;;;3.78;0.52;;;;;;;9.94;96.64;102224.97;5037371;27;96804;-30
2022/11/10 07:46:20;;;;;;;8.55;0.88;;;;;;;9.96;96.21;102216.78;5036935;28;97864;-31
2022/11/10 07:48:46;;;;;;;3.97;0.68;;;;;;;9.98;96.07;102221.19;5037377;27;97862;-31
2022/11/10 07:51:11;;;;;;;6.78;0.75;;;;;;;10.03;95.73;102225.56;5037289;27;96599;-30
2022/11/10 07:53:37;;;;;;;7.63;0.75;;;;;;;10.05;96.40;102227.28;5037183;27;96908;-31
2022/11/10 07:56:03;;;;;;;1.63;0.52;;;;;;;10.07;96.43;102211.88;5035543;27;98976;-30
2022/11/10 07:58:29;;;;;;;3.53;1.08;;;;;;;10.10;96.33;102214.44;5036717;27;98677;-31
2022/11/10 08:00:54;;;;;;;3.88;0.88;;;;;;;10.17;95.66;102218.69;5035551;27;96694;-32
2022/11/10 08:03:20;;;;;;;2.03;0.73;;;;;;;10.23;95.76;102231.13;5037778;27;96869;-31
2022/11/10 08:05:46;;;;;;;7.78;0.98;;;;;;;10.27;95.70;102227.34;5035587;28;101187;-31
2022/11/10 08:08:12;;;;;;;5.50;1.13;;;;;;;10.34;95.77;102241.56;5037037;28;97931;-31
2022/11/10 08:10:39;;;;;;;5.07;0.70;;;;;;;10.38;95.37;102233.28;5035037;28;96694;-30
2022/11/10 08:13:07;;;;;;;5.38;0.85;;;;;;;10.44;95.61;102236.69;5035678;28;96884;-33
2022/11/10 08:15:33;;;;;;;6.13;0.70;;;;;;;10.51;95.14;102249.97;5035051;28;98923;-32
2022/11/10 08:18:20;;;;;;;4.07;1.02;;;;;;;10.56;94.54;102242.53;5036804;28;97887;-31
2022/11/10 08:20:46;;;;;;;2.45;0.68;;;;;;;10.63;94.66;102254.91;5034246;27;96891;-31
2022/11/10 08:23:13;;;;;;;1.88;1.00;;;;;;;10.65;94.76;102249.38;5035476;27;96863;-31
2022/11/10 08:25:38;;;;;;;0.65;0.38;;;;;;;10.68;95.17;102264.66;5035078;28;101295;-30
2022/11/10 08:28:12;;;;;;;2.17;0.55;;;;;;;10.72;94.65;102277.13;5036560;27;108744;-30
2022/11/10 08:30:39;;;;;;;1.83;0.70;;;;;;;10.74;95.04;102280.69;5035629;28;96651;-30
2022/11/10 08:33:08;;;;;;;1.92;0.77;;;;;;;10.76;94.24;102278.78;5035445;28;96830;-32
2022/11/10 08:35:36;;;;;;;3.42;0.73;;;;;;;10.73;95.04;102273.50;5034438;28;100978;-31
2022/11/10 08:38:10;;;;;;;1.52;0.90;;;;;;;10.74;94.64;102283.38;5036348;27;99622;-31
2022/11/10 08:40:37;;;;;;;0.80;0.43;;;;;;;10.73;94.79;102274.38;5036612;27;96584;-31
2022/11/10 08:43:06;;;;;;;3.58;1.05;;;;;;;10.76;94.31;102281.50;5035196;28;96920;-31
2022/11/10 08:45:33;;;;;;;2.17;0.70;;;;;;;10.77;94.32;102285.97;5036098;27;99779;-30
2022/11/10 08:48:00;;;;;;;4.43;1.40;;;;;;;10.76;95.17;102287.81;5034780;28;99237;-32
2022/11/10 08:50:27;;;;;;;5.75;0.95;;;;;;;10.80;94.92;102288.59;5034890;28;96669;-30
2022/11/10 08:52:52;;;;;;;2.00;0.68;;;;;;;10.80;94.46;102289.47;5035477;28;96893;-32
2022/11/10 08:55:19;;;;;;;6.22;0.90;;;;;;;10.85;94.88;102297.41;5036178;28;97420;-32
2022/11/10 08:57:45;;;;;;;4.57;0.73;;;;;;;10.88;94.80;102286.44;5034631;28;100859;-31
2022/11/10 09:00:12;;;;;;;2.25;0.73;;;;;;;10.91;95.02;102278.16;5034617;28;96593;-32
2022/11/10 09:02:37;;;;;;;3.97;1.05;;;;;;;10.95;95.20;102287.97;5034669;27;96933;-32
2022/11/10 09:05:02;;;;;;;4.22;1.10;;;;;;;11.06;94.72;102295.69;5036082;28;98950;-30
2022/11/10 09:07:29;;;;;;;3.10;0.93;;;;;;;11.10;94.31;102285.56;5035897;27;99135;-31
2022/11/10 09:09:55;;;;;;;3.40;0.77;;;;;;;11.14;94.46;102282.69;5034843;28;96635;-32
2022/11/10 09:12:20;;;;;;;4.90;0.77;;;;;;;11.18;94.12;102283.44;5036270;27;96862;-31
2022/11/10 09:14:45;;;;;;;3.67;0.88;;;;;;;11.23;94.02;102274.16;5035946;27;98090;-30
2022/11/10 09:17:11;;;;;;;5.05;0.63;;;;;;;11.30;93.97;102280.22;5035844;28;103046;-31
2022/11/10 09:19:36;;;;;;;6.20;0.88;;;;;;;11.38;93.37;102288.91;5035504;27;96757;-31
2022/11/10 09:22:01;;;;;;;2.22;0.93;;;;;;;11.43;93.46;102289.59;5035959;28;96515;-30
2022/11/10 09:24:27;;;;;;;4.43;1.02;;;;;;;11.49;92.84;102296.63;5035113;28;106195;-32
2022/11/10 09:26:52;;;;;;;4.50;1.02;;;;;;;11.56;93.05;102302.66;5035458;27;99477;-31
2022/11/10 09:29:17;;;;;;;5.55;1.05;;;;;;;11.68;92.60;102302.16;5036138;27;96639;-32
2022/11/10 09:31:44;;;;;;;2.58;0.80;;;;;;;11.78;92.47;102306.22;5035788;27;96814;-30
2022/11/10 09:34:09;;;;;;;3.65;0.98;;;;;;;11.92;92.32;102304.75;5033788;27;101519;-31
2022/11/10 09:36:35;;;;;;;3.33;1.10;;;;;;;12.01;91.81;102307.06;5035455;28;97844;-30
2022/11/10 09:39:00;;;;;;;2.38;1.10;;;;;;;12.13;92.03;102313.78;5034983;27;107519;-30
2022/11/10 09:41:28;;;;;;;6.22;1.08;;;;;;;12.24;91.26;102320.50;5036331;27;96782;-31
2022/11/10 09:44:10;;;;;;;3.25;0.98;;;;;;;12.29;90.22;102323.91;5035185;27;97972;-31
2022/11/10 09:46:47;;;;;;;2.30;1.20;;;;;;;12.38;90.35;102322.63;5033964;28;101481;-32
2022/11/10 09:49:21;;;;;;;10.45;1.38;;;;;;;12.48;90.28;102328.50;5033793;28;96697;-31
2022/11/10 09:51:47;;;;;;;5.28;1.27;;;;;;;12.49;89.69;102331.16;5035599;27;96885;-30
2022/11/10 09:54:40;;;;;;;6.75;1.02;;;;;;;12.57;89.75;102333.53;5035178;27;98054;-31
2022/11/10 09:57:09;;;;;;;9.63;1.60;;;;;;;12.60;89.49;102329.78;5034996;28;97807;-31
2022/11/10 09:59:35;;;;;;;3.97;1.05;;;;;;;12.66;89.51;102348.53;5033997;28;96614;-32
2022/11/10 10:02:11;;;;;;;5.40;1.35;;;;;;;12.77;89.43;102354.34;5033814;27;96822;-31
2022/11/10 10:04:57;;;;;;;6.15;1.40;;;;;;;12.94;89.32;102370.78;5033677;28;101130;-31
2022/11/10 10:07:36;;;;;;;3.50;1.23;;;;;;;13.07;88.66;102370.19;5033877;27;100937;-30
2022/11/10 10:10:30;;;;;;;6.00;1.33;;;;;;;13.10;88.30;102397.25;5035331;27;96713;-32
2022/11/10 10:13:29;;;;;;;3.83;0.82;;;;;;;13.08;88.29;102400.03;5033985;28;96747;-30
2022/11/10 10:16:15;;;;;;;4.43;1.20;;;;;;;13.02;88.20;102410.34;5034592;28;97434;-31
2022/11/10 10:19:05;;;;;;;2.85;1.05;;;;;;;13.01;88.46;102409.41;5035128;28;97748;-31
2022/11/10 10:21:58;;;;;;;8.55;1.35;;;;;;;13.03;88.15;102414.81;5033720;28;96621;-30
2022/11/10 10:24:29;;;;;;;0.85;0.73;;;;;;;13.08;88.28;102412.75;5035196;27;96900;-31
2022/11/10 10:26:59;;;;;;;1.25;0.80;;;;;;;13.18;88.25;102408.66;5034574;27;99343;-30
2022/11/10 10:29:29;;;;;;;3.90;1.10;;;;;;;13.20;87.89;102414.88;5033353;28;101559;-29
2022/11/10 10:31:57;;;;;;;6.47;1.35;;;;;;;13.22;87.96;102398.50;5033505;28;96508;-31
2022/11/10 10:34:27;;;;;;;3.67;1.40;;;;;;;13.20;87.74;102394.97;5033745;28;96885;-31
2022/11/10 10:36:52;;;;;;;5.78;1.15;;;;;;;13.17;87.61;102396.88;5033102;28;100944;-31
2022/11/10 10:39:39;;;;;;;2.15;1.35;;;;;;;13.21;87.99;102397.63;5034775;27;97880;-30
2022/11/10 10:42:21;;;;;;;4.10;1.23;;;;;;;13.24;87.47;102391.16;5034670;27;96594;-30
2022/11/10 10:45:16;;;;;;;4.70;1.10;;;;;;;13.30;87.18;102402.66;5032800;27;96732;-31
2022/11/10 10:47:43;;;;;;;4.97;1.40;;;;;;;13.32;87.61;102416.16;5034356;28;98114;-31
2022/11/10 10:50:27;;;;;;;9.52;1.45;;;;;;;13.34;87.38;102412.41;5032949;28;100858;-30
2022/11/10 10:53:17;;;;;;;2.78;1.20;;;;;;;13.43;87.06;102421.13;5033432;28;96697;-31
2022/11/10 10:56:04;;;;;;;9.75;1.88;;;;;;;13.43;87.03;102424.72;5033220;28;97037;-30
2022/11/10 10:58:46;;;;;;;1.90;1.13;;;;;;;13.36;86.67;102428.69;5033016;27;100687;-31
2022/11/10 11:01:15;;;;;;;5.75;1.75;;;;;;;13.36;86.76;102425.97;5033032;28;100946;-30
2022/11/10 11:03:47;;;;;;;5.75;1.35;;;;;;;13.43;87.37;102423.84;5034606;28;96704;-31
2022/11/10 11:06:15;;;;;;;3.85;1.33;;;;;;;13.51;87.23;102433.38;5033263;28;96773;-31
2022/11/10 11:09:13;;;;;;;6.28;1.50;;;;;;;13.51;86.23;102427.94;5033830;28;98016;-32
2022/11/10 11:11:41;;;;;;;4.25;1.45;;;;;;;13.45;86.46;102427.38;5025040;28;100902;-32
2022/11/10 11:14:27;;;;;;;2.15;1.10;;;;;;;13.46;86.52;102435.44;5034178;27;96766;-33
2022/11/10 11:16:59;;;;;;;2.35;1.23;;;;;;;13.44;86.55;102440.06;5032729;28;97549;-31
2022/11/10 11:19:30;;;;;;;7.90;1.65;;;;;;;13.45;86.66;102441.84;5032111;28;100806;-31
2022/11/10 11:22:05;;;;;;;6.35;1.52;;;;;;;13.44;86.57;102456.41;5032766;28;100816;-31
2022/11/10 11:24:47;;;;;;;5.15;1.08;;;;;;;13.42;86.79;102468.31;5034305;28;96696;-30
2022/11/10 11:27:34;;;;;;;2.13;1.30;;;;;;;13.40;86.46;102462.09;5033318;28;96799;-32
2022/11/10 11:30:13;;;;;;;2.65;1.08;;;;;;;13.38;86.97;102462.16;5033864;27;99368;-30
2022/11/10 11:32:44;;;;;;;9.15;1.52;;;;;;;13.40;87.09;102481.16;5034001;27;97873;-31
2022/11/10 11:35:34;;;;;;;3.85;1.10;;;;;;;13.41;87.06;102480.19;5033526;28;96631;-31
2022/11/10 11:38:11;;;;;;;2.83;1.35;;;;;;;13.39;86.19;102472.06;5032766;28;96760;-33
2022/11/10 11:40:52;;;;;;;6.50;1.55;;;;;;;13.37;86.67;102464.00;5033992;28;98177;-32
2022/11/10 11:43:53;;;;;;;2.03;1.15;;;;;;;13.35;86.23;102467.75;5032047;28;100851;-31
2022/11/10 11:46:30;;;;;;;3.45;1.02;;;;;;;13.33;87.15;102464.22;5030688;28;96943;-31
2022/11/10 11:49:17;;;;;;;4.47;1.10;;;;;;;13.31;86.42;102464.28;5033899;28;96766;-30